sensor_id;sensor_type;location;lat;lon;timestamp;temperature;humidity
21169;DHT22;10742;51.816;8.662;2023-02-26T00:01:57;4.50;90.40
21169;DHT22;10742;51.816;8.662;2023-02-26T00:05:05;4.50;90.40
21169;DHT22;10742;51.816;8.662;2023-02-26T00:08:24;4.50;90.40
21169;DHT22;10742;51.816;8.662;2023-02-26T00:11:32;4.50;90.50
21169;DHT22;10742;51.816;8.662;2023-02-26T00:14:42;4.40;90.50
21169;DHT22;10742;51.816;8.662;2023-02-26T00:17:58;4.40;90.50
21169;DHT22;10742;51.816;8.662;2023-02-26T00:21:12;4.40;90.60
21169;DHT22;10742;51.816;8.662;2023-02-26T00:24:21;4.30;90.40
21169;DHT22;10742;51.816;8.662;2023-02-26T00:27:26;4.30;90.50
21169;DHT22;10742;51.816;8.662;2023-02-26T00:30:31;4.30;90.50
21169;DHT22;10742;51.816;8.662;2023-02-26T00:33:40;4.20;90.60
21169;DHT22;10742;51.816;8.662;2023-02-26T00:40:21;4.20;90.60
21169;DHT22;10742;51.816;8.662;2023-02-26T00:43:30;4.20;90.70
21169;DHT22;10742;51.816;8.662;2023-02-26T00:53:33;4.10;90.80
21169;DHT22;10742;51.816;8.662;2023-02-26T00:56:37;4.10;90.80
21169;DHT22;10742;51.816;8.662;2023-02-26T00:59:43;4.00;90.60
21169;DHT22;10742;51.816;8.662;2023-02-26T01:02:46;4.00;90.70
21169;DHT22;10742;51.816;8.662;2023-02-26T01:05:49;4.00;90.80
21169;DHT22;10742;51.816;8.662;2023-02-26T01:09:08;4.00;90.80
21169;DHT22;10742;51.816;8.662;2023-02-26T01:12:16;4.00;90.90
21169;DHT22;10742;51.816;8.662;2023-02-26T01:15:19;4.00;90.80
21169;DHT22;10742;51.816;8.662;2023-02-26T01:18:28;4.00;90.80
21169;DHT22;10742;51.816;8.662;2023-02-26T01:21:39;4.00;90.80
21169;DHT22;10742;51.816;8.662;2023-02-26T01:24:43;4.00;90.80
21169;DHT22;10742;51.816;8.662;2023-02-26T01:27:51;4.00;90.80
21169;DHT22;10742;51.816;8.662;2023-02-26T01:31:00;4.00;90.70
21169;DHT22;10742;51.816;8.662;2023-02-26T01:41:16;3.90;90.80
21169;DHT22;10742;51.816;8.662;2023-02-26T01:44:31;3.90;90.70
21169;DHT22;10742;51.816;8.662;2023-02-26T01:47:53;3.90;90.70
21169;DHT22;10742;51.816;8.662;2023-02-26T01:51:07;3.90;90.70
21169;DHT22;10742;51.816;8.662;2023-02-26T01:54:12;3.90;90.70
21169;DHT22;10742;51.816;8.662;2023-02-26T01:57:17;3.80;90.70
21169;DHT22;10742;51.816;8.662;2023-02-26T02:00:25;3.80;90.70
21169;DHT22;10742;51.816;8.662;2023-02-26T02:03:31;3.70;90.70
21169;DHT22;10742;51.816;8.662;2023-02-26T02:06:42;3.70;90.70
21169;DHT22;10742;51.816;8.662;2023-02-26T02:09:55;3.70;90.80
21169;DHT22;10742;51.816;8.662;2023-02-26T02:16:26;3.60;90.90
21169;DHT22;10742;51.816;8.662;2023-02-26T02:20:18;3.60;90.90
21169;DHT22;10742;51.816;8.662;2023-02-26T02:33:30;3.50;90.90
21169;DHT22;10742;51.816;8.662;2023-02-26T02:36:52;3.60;90.90
21169;DHT22;10742;51.816;8.662;2023-02-26T02:40:21;3.50;91.20
21169;DHT22;10742;51.816;8.662;2023-02-26T02:43:33;3.50;90.90
21169;DHT22;10742;51.816;8.662;2023-02-26T02:46:39;3.50;90.80
21169;DHT22;10742;51.816;8.662;2023-02-26T02:50:01;3.50;90.80
21169;DHT22;10742;51.816;8.662;2023-02-26T02:53:16;3.50;90.80
21169;DHT22;10742;51.816;8.662;2023-02-26T02:56:55;3.50;90.80
21169;DHT22;10742;51.816;8.662;2023-02-26T03:00:10;3.40;90.90
21169;DHT22;10742;51.816;8.662;2023-02-26T03:06:46;3.40;90.90
21169;DHT22;10742;51.816;8.662;2023-02-26T03:09:53;3.40;90.90
21169;DHT22;10742;51.816;8.662;2023-02-26T03:12:57;3.40;90.90
21169;DHT22;10742;51.816;8.662;2023-02-26T03:26:13;3.40;90.90
21169;DHT22;10742;51.816;8.662;2023-02-26T03:36:50;3.40;91.00
21169;DHT22;10742;51.816;8.662;2023-02-26T03:40:07;3.40;90.90
21169;DHT22;10742;51.816;8.662;2023-02-26T03:43:25;3.40;90.90
21169;DHT22;10742;51.816;8.662;2023-02-26T03:46:51;3.40;90.90
21169;DHT22;10742;51.816;8.662;2023-02-26T03:50:05;3.40;91.00
21169;DHT22;10742;51.816;8.662;2023-02-26T03:53:25;3.40;90.90
21169;DHT22;10742;51.816;8.662;2023-02-26T03:56:42;3.40;90.90
21169;DHT22;10742;51.816;8.662;2023-02-26T03:59:52;3.40;91.00
21169;DHT22;10742;51.816;8.662;2023-02-26T04:06:29;3.40;91.00
21169;DHT22;10742;51.816;8.662;2023-02-26T04:09:32;3.40;91.00
21169;DHT22;10742;51.816;8.662;2023-02-26T04:12:37;3.50;91.10
21169;DHT22;10742;51.816;8.662;2023-02-26T04:15:42;3.50;91.10
21169;DHT22;10742;51.816;8.662;2023-02-26T04:18:48;3.40;91.10
21169;DHT22;10742;51.816;8.662;2023-02-26T04:21:51;3.50;91.10
21169;DHT22;10742;51.816;8.662;2023-02-26T04:24:54;3.50;91.10
21169;DHT22;10742;51.816;8.662;2023-02-26T04:28:00;3.50;91.10
21169;DHT22;10742;51.816;8.662;2023-02-26T04:31:04;3.50;91.10
21169;DHT22;10742;51.816;8.662;2023-02-26T04:34:11;3.50;91.00
21169;DHT22;10742;51.816;8.662;2023-02-26T04:37:17;3.50;91.00
21169;DHT22;10742;51.816;8.662;2023-02-26T04:40:23;3.50;91.00
21169;DHT22;10742;51.816;8.662;2023-02-26T04:43:26;3.50;91.00
21169;DHT22;10742;51.816;8.662;2023-02-26T04:46:47;3.50;91.00
21169;DHT22;10742;51.816;8.662;2023-02-26T04:50:01;3.40;91.00
21169;DHT22;10742;51.816;8.662;2023-02-26T04:53:17;3.40;91.10
21169;DHT22;10742;51.816;8.662;2023-02-26T04:56:25;3.40;91.00
21169;DHT22;10742;51.816;8.662;2023-02-26T04:59:31;3.40;91.00
21169;DHT22;10742;51.816;8.662;2023-02-26T05:02:57;3.30;91.00
21169;DHT22;10742;51.816;8.662;2023-02-26T05:06:00;3.30;91.10
21169;DHT22;10742;51.816;8.662;2023-02-26T05:09:03;3.30;91.10
21169;DHT22;10742;51.816;8.662;2023-02-26T05:12:07;3.30;91.20
21169;DHT22;10742;51.816;8.662;2023-02-26T05:15:10;3.30;91.20
21169;DHT22;10742;51.816;8.662;2023-02-26T05:18:14;3.30;91.20
21169;DHT22;10742;51.816;8.662;2023-02-26T05:21:17;3.30;91.20
21169;DHT22;10742;51.816;8.662;2023-02-26T05:24:22;3.20;91.20
21169;DHT22;10742;51.816;8.662;2023-02-26T05:27:25;3.20;91.30
21169;DHT22;10742;51.816;8.662;2023-02-26T05:30:31;3.20;91.30
21169;DHT22;10742;51.816;8.662;2023-02-26T05:33:36;3.20;91.30
21169;DHT22;10742;51.816;8.662;2023-02-26T05:36:54;3.20;91.30
21169;DHT22;10742;51.816;8.662;2023-02-26T05:39:57;3.20;91.20
21169;DHT22;10742;51.816;8.662;2023-02-26T05:43:03;3.20;91.30
21169;DHT22;10742;51.816;8.662;2023-02-26T05:46:07;3.20;91.30
21169;DHT22;10742;51.816;8.662;2023-02-26T05:49:24;3.20;91.30
21169;DHT22;10742;51.816;8.662;2023-02-26T05:52:27;3.20;91.30
21169;DHT22;10742;51.816;8.662;2023-02-26T05:55:36;3.20;91.30
21169;DHT22;10742;51.816;8.662;2023-02-26T05:58:39;3.20;91.40
21169;DHT22;10742;51.816;8.662;2023-02-26T06:01:46;3.20;91.30
21169;DHT22;10742;51.816;8.662;2023-02-26T06:04:51;3.20;91.30
21169;DHT22;10742;51.816;8.662;2023-02-26T06:07:57;3.20;91.40
21169;DHT22;10742;51.816;8.662;2023-02-26T06:11:00;3.20;91.40
21169;DHT22;10742;51.816;8.662;2023-02-26T06:14:03;3.20;91.40
21169;DHT22;10742;51.816;8.662;2023-02-26T06:17:09;3.20;91.30
21169;DHT22;10742;51.816;8.662;2023-02-26T06:20:15;3.20;91.30
21169;DHT22;10742;51.816;8.662;2023-02-26T06:23:21;3.20;91.30
21169;DHT22;10742;51.816;8.662;2023-02-26T06:26:24;3.20;91.30
21169;DHT22;10742;51.816;8.662;2023-02-26T06:29:28;3.20;91.30
21169;DHT22;10742;51.816;8.662;2023-02-26T06:32:34;3.20;91.30
21169;DHT22;10742;51.816;8.662;2023-02-26T06:35:39;3.20;91.30
21169;DHT22;10742;51.816;8.662;2023-02-26T06:38:48;3.20;91.30
21169;DHT22;10742;51.816;8.662;2023-02-26T06:41:53;3.20;91.30
21169;DHT22;10742;51.816;8.662;2023-02-26T06:45:04;3.20;91.30
21169;DHT22;10742;51.816;8.662;2023-02-26T06:48:13;3.20;91.30
21169;DHT22;10742;51.816;8.662;2023-02-26T06:51:22;3.20;91.30
21169;DHT22;10742;51.816;8.662;2023-02-26T06:54:35;3.20;91.30
21169;DHT22;10742;51.816;8.662;2023-02-26T06:57:38;3.30;91.30
21169;DHT22;10742;51.816;8.662;2023-02-26T07:00:44;3.30;91.20
21169;DHT22;10742;51.816;8.662;2023-02-26T07:03:47;3.30;91.20
21169;DHT22;10742;51.816;8.662;2023-02-26T07:06:55;3.30;91.20
21169;DHT22;10742;51.816;8.662;2023-02-26T07:10:08;3.30;91.20
21169;DHT22;10742;51.816;8.662;2023-02-26T07:13:15;3.40;91.20
21169;DHT22;10742;51.816;8.662;2023-02-26T07:16:25;3.40;91.10
21169;DHT22;10742;51.816;8.662;2023-02-26T07:19:29;3.40;91.10
21169;DHT22;10742;51.816;8.662;2023-02-26T07:22:46;3.40;91.10
21169;DHT22;10742;51.816;8.662;2023-02-26T07:25:58;3.40;91.10
21169;DHT22;10742;51.816;8.662;2023-02-26T07:29:01;3.40;91.10
21169;DHT22;10742;51.816;8.662;2023-02-26T07:32:41;3.40;91.50
21169;DHT22;10742;51.816;8.662;2023-02-26T07:35:51;3.40;91.30
21169;DHT22;10742;51.816;8.662;2023-02-26T07:38:58;3.50;91.30
21169;DHT22;10742;51.816;8.662;2023-02-26T07:42:11;3.50;91.50
21169;DHT22;10742;51.816;8.662;2023-02-26T07:45:16;3.70;91.50
21169;DHT22;10742;51.816;8.662;2023-02-26T07:48:24;3.70;91.40
21169;DHT22;10742;51.816;8.662;2023-02-26T07:51:33;3.80;91.30
21169;DHT22;10742;51.816;8.662;2023-02-26T07:54:36;3.90;91.20
21169;DHT22;10742;51.816;8.662;2023-02-26T07:57:41;4.00;91.30
21169;DHT22;10742;51.816;8.662;2023-02-26T08:00:45;4.10;91.50
21169;DHT22;10742;51.816;8.662;2023-02-26T08:04:09;4.20;91.50
21169;DHT22;10742;51.816;8.662;2023-02-26T08:07:43;4.30;91.40
21169;DHT22;10742;51.816;8.662;2023-02-26T08:11:01;4.50;91.10
21169;DHT22;10742;51.816;8.662;2023-02-26T08:14:10;4.60;91.20
21169;DHT22;10742;51.816;8.662;2023-02-26T08:17:15;4.70;91.20
21169;DHT22;10742;51.816;8.662;2023-02-26T08:20:18;4.80;91.30
21169;DHT22;10742;51.816;8.662;2023-02-26T08:23:21;5.00;91.60
21169;DHT22;10742;51.816;8.662;2023-02-26T08:26:36;5.20;91.70
21169;DHT22;10742;51.816;8.662;2023-02-26T08:29:39;5.30;91.90
21169;DHT22;10742;51.816;8.662;2023-02-26T08:32:46;5.50;91.90
21169;DHT22;10742;51.816;8.662;2023-02-26T08:35:51;5.70;91.70
21169;DHT22;10742;51.816;8.662;2023-02-26T08:38:58;5.80;90.60
21169;DHT22;10742;51.816;8.662;2023-02-26T08:42:00;5.80;90.80
21169;DHT22;10742;51.816;8.662;2023-02-26T08:45:07;5.90;90.60
21169;DHT22;10742;51.816;8.662;2023-02-26T08:48:15;5.90;90.60
21169;DHT22;10742;51.816;8.662;2023-02-26T08:51:19;5.90;90.30
21169;DHT22;10742;51.816;8.662;2023-02-26T08:54:21;5.90;89.80
21169;DHT22;10742;51.816;8.662;2023-02-26T08:57:25;5.90;90.10
21169;DHT22;10742;51.816;8.662;2023-02-26T09:00:36;5.90;90.20
21169;DHT22;10742;51.816;8.662;2023-02-26T09:03:39;5.90;90.10
21169;DHT22;10742;51.816;8.662;2023-02-26T09:06:44;5.90;89.80
21169;DHT22;10742;51.816;8.662;2023-02-26T09:09:53;5.90;90.00
21169;DHT22;10742;51.816;8.662;2023-02-26T09:13:04;5.90;90.00
21169;DHT22;10742;51.816;8.662;2023-02-26T09:16:07;5.90;89.20
21169;DHT22;10742;51.816;8.662;2023-02-26T09:19:20;5.90;89.20
21169;DHT22;10742;51.816;8.662;2023-02-26T09:22:27;6.00;88.80
21169;DHT22;10742;51.816;8.662;2023-02-26T09:25:30;6.00;88.50
21169;DHT22;10742;51.816;8.662;2023-02-26T09:28:34;6.00;88.10
21169;DHT22;10742;51.816;8.662;2023-02-26T09:31:37;6.00;87.70
21169;DHT22;10742;51.816;8.662;2023-02-26T09:34:41;6.00;87.50
21169;DHT22;10742;51.816;8.662;2023-02-26T09:37:45;6.00;86.90
21169;DHT22;10742;51.816;8.662;2023-02-26T09:40:59;6.00;86.80
21169;DHT22;10742;51.816;8.662;2023-02-26T09:44:19;6.10;86.20
21169;DHT22;10742;51.816;8.662;2023-02-26T09:47:30;6.10;85.60
21169;DHT22;10742;51.816;8.662;2023-02-26T09:51:11;6.10;85.40
21169;DHT22;10742;51.816;8.662;2023-02-26T09:54:26;6.10;85.10
21169;DHT22;10742;51.816;8.662;2023-02-26T09:57:40;6.10;84.30
21169;DHT22;10742;51.816;8.662;2023-02-26T10:08:15;6.20;84.20
21169;DHT22;10742;51.816;8.662;2023-02-26T10:17:56;6.20;82.70
21169;DHT22;10742;51.816;8.662;2023-02-26T10:21:33;6.20;82.00
21169;DHT22;10742;51.816;8.662;2023-02-26T10:24:47;6.30;82.50
21169;DHT22;10742;51.816;8.662;2023-02-26T10:28:06;6.30;82.20
21169;DHT22;10742;51.816;8.662;2023-02-26T10:31:23;6.40;82.60
21169;DHT22;10742;51.816;8.662;2023-02-26T10:34:50;6.40;82.90
21169;DHT22;10742;51.816;8.662;2023-02-26T10:38:24;6.50;81.10
21169;DHT22;10742;51.816;8.662;2023-02-26T10:41:30;6.40;80.20
21169;DHT22;10742;51.816;8.662;2023-02-26T10:48:41;6.50;80.20
21169;DHT22;10742;51.816;8.662;2023-02-26T10:51:47;6.40;80.10
21169;DHT22;10742;51.816;8.662;2023-02-26T10:58:21;6.40;80.00
21169;DHT22;10742;51.816;8.662;2023-02-26T11:01:37;6.40;80.80
21169;DHT22;10742;51.816;8.662;2023-02-26T11:04:44;6.50;79.30
21169;DHT22;10742;51.816;8.662;2023-02-26T11:08:26;6.50;79.80
21169;DHT22;10742;51.816;8.662;2023-02-26T11:11:42;6.50;79.70
21169;DHT22;10742;51.816;8.662;2023-02-26T11:14:48;6.50;79.60
21169;DHT22;10742;51.816;8.662;2023-02-26T11:17:56;6.50;80.20
21169;DHT22;10742;51.816;8.662;2023-02-26T11:21:00;6.50;79.70
21169;DHT22;10742;51.816;8.662;2023-02-26T11:24:39;6.60;79.40
21169;DHT22;10742;51.816;8.662;2023-02-26T11:27:42;6.70;78.20
21169;DHT22;10742;51.816;8.662;2023-02-26T11:30:48;6.80;79.00
21169;DHT22;10742;51.816;8.662;2023-02-26T11:34:02;6.90;77.90
21169;DHT22;10742;51.816;8.662;2023-02-26T11:37:09;6.90;78.20
21169;DHT22;10742;51.816;8.662;2023-02-26T11:40:34;7.00;77.80
21169;DHT22;10742;51.816;8.662;2023-02-26T11:43:45;7.20;76.90
21169;DHT22;10742;51.816;8.662;2023-02-26T11:46:57;7.30;76.90
21169;DHT22;10742;51.816;8.662;2023-02-26T11:50:14;7.40;76.80
21169;DHT22;10742;51.816;8.662;2023-02-26T11:53:35;7.50;75.20
21169;DHT22;10742;51.816;8.662;2023-02-26T11:56:41;7.50;75.20
21169;DHT22;10742;51.816;8.662;2023-02-26T11:59:51;7.60;75.50
21169;DHT22;10742;51.816;8.662;2023-02-26T12:03:14;7.70;74.10
21169;DHT22;10742;51.816;8.662;2023-02-26T12:06:20;7.70;74.10
21169;DHT22;10742;51.816;8.662;2023-02-26T12:09:24;7.80;74.00
21169;DHT22;10742;51.816;8.662;2023-02-26T12:16:00;7.80;72.50
21169;DHT22;10742;51.816;8.662;2023-02-26T12:26:18;7.90;71.50
21169;DHT22;10742;51.816;8.662;2023-02-26T12:40:42;7.90;69.50
21169;DHT22;10742;51.816;8.662;2023-02-26T12:44:19;8.00;69.50
21169;DHT22;10742;51.816;8.662;2023-02-26T12:48:25;8.00;68.10
21169;DHT22;10742;51.816;8.662;2023-02-26T12:59:51;8.00;68.50
21169;DHT22;10742;51.816;8.662;2023-02-26T13:10:15;8.10;68.60
21169;DHT22;10742;51.816;8.662;2023-02-26T13:17:26;8.10;68.40
21169;DHT22;10742;51.816;8.662;2023-02-26T13:24:14;8.00;68.00
21169;DHT22;10742;51.816;8.662;2023-02-26T13:27:43;7.90;68.30
21169;DHT22;10742;51.816;8.662;2023-02-26T13:31:02;7.80;68.30
21169;DHT22;10742;51.816;8.662;2023-02-26T13:37:52;7.60;67.50
21169;DHT22;10742;51.816;8.662;2023-02-26T13:41:25;7.50;67.70
21169;DHT22;10742;51.816;8.662;2023-02-26T13:54:43;7.40;70.00
21169;DHT22;10742;51.816;8.662;2023-02-26T13:57:51;7.40;70.10
21169;DHT22;10742;51.816;8.662;2023-02-26T14:01:15;7.40;70.00
21169;DHT22;10742;51.816;8.662;2023-02-26T14:04:28;7.40;68.90
21169;DHT22;10742;51.816;8.662;2023-02-26T14:09:02;7.40;69.10
21169;DHT22;10742;51.816;8.662;2023-02-26T14:15:26;7.40;69.60
21169;DHT22;10742;51.816;8.662;2023-02-26T14:18:36;7.40;70.00
21169;DHT22;10742;51.816;8.662;2023-02-26T14:22:16;7.40;70.40
21169;DHT22;10742;51.816;8.662;2023-02-26T14:26:00;7.50;70.60
21169;DHT22;10742;51.816;8.662;2023-02-26T14:38:49;7.80;70.30
21169;DHT22;10742;51.816;8.662;2023-02-26T14:41:59;7.80;70.10
21169;DHT22;10742;51.816;8.662;2023-02-26T14:45:15;7.90;69.50
21169;DHT22;10742;51.816;8.662;2023-02-26T14:48:22;7.90;69.70
21169;DHT22;10742;51.816;8.662;2023-02-26T15:02:29;7.90;68.80
21169;DHT22;10742;51.816;8.662;2023-02-26T15:16:03;7.90;69.20
21169;DHT22;10742;51.816;8.662;2023-02-26T15:26:34;8.00;73.20
21169;DHT22;10742;51.816;8.662;2023-02-26T15:30:03;8.20;70.90
21169;DHT22;10742;51.816;8.662;2023-02-26T15:33:13;8.30;70.30
21169;DHT22;10742;51.816;8.662;2023-02-26T15:36:19;8.30;69.20
21169;DHT22;10742;51.816;8.662;2023-02-26T15:39:24;8.20;69.40
21169;DHT22;10742;51.816;8.662;2023-02-26T15:42:30;8.10;69.50
21169;DHT22;10742;51.816;8.662;2023-02-26T15:45:46;8.10;69.00
21169;DHT22;10742;51.816;8.662;2023-02-26T15:48:49;8.00;68.60
21169;DHT22;10742;51.816;8.662;2023-02-26T15:51:52;8.00;69.20
21169;DHT22;10742;51.816;8.662;2023-02-26T15:54:58;8.00;68.70
21169;DHT22;10742;51.816;8.662;2023-02-26T15:58:02;7.90;67.80
21169;DHT22;10742;51.816;8.662;2023-02-26T16:01:06;7.80;68.00
21169;DHT22;10742;51.816;8.662;2023-02-26T16:04:15;7.70;68.20
21169;DHT22;10742;51.816;8.662;2023-02-26T16:07:26;7.70;68.00
21169;DHT22;10742;51.816;8.662;2023-02-26T16:10:38;7.70;67.90
21169;DHT22;10742;51.816;8.662;2023-02-26T16:13:42;7.70;68.40
21169;DHT22;10742;51.816;8.662;2023-02-26T16:16:50;7.70;68.90
21169;DHT22;10742;51.816;8.662;2023-02-26T16:19:55;7.70;68.70
21169;DHT22;10742;51.816;8.662;2023-02-26T16:23:03;7.70;69.00
21169;DHT22;10742;51.816;8.662;2023-02-26T16:26:18;7.70;68.70
21169;DHT22;10742;51.816;8.662;2023-02-26T16:29:44;7.70;68.70
21169;DHT22;10742;51.816;8.662;2023-02-26T16:32:58;7.60;68.40
21169;DHT22;10742;51.816;8.662;2023-02-26T16:36:15;7.60;69.20
21169;DHT22;10742;51.816;8.662;2023-02-26T16:39:42;7.60;68.40
21169;DHT22;10742;51.816;8.662;2023-02-26T16:45:54;7.60;68.70
21169;DHT22;10742;51.816;8.662;2023-02-26T16:49:25;7.50;68.10
21169;DHT22;10742;51.816;8.662;2023-02-26T16:52:32;7.50;68.10
21169;DHT22;10742;51.816;8.662;2023-02-26T16:55:36;7.50;68.30
21169;DHT22;10742;51.816;8.662;2023-02-26T16:58:45;7.50;68.30
21169;DHT22;10742;51.816;8.662;2023-02-26T17:02:28;7.40;68.40
21169;DHT22;10742;51.816;8.662;2023-02-26T17:05:26;7.40;67.80
21169;DHT22;10742;51.816;8.662;2023-02-26T17:08:36;7.40;68.30
21169;DHT22;10742;51.816;8.662;2023-02-26T17:11:44;7.40;67.90
21169;DHT22;10742;51.816;8.662;2023-02-26T17:14:59;7.30;68.30
21169;DHT22;10742;51.816;8.662;2023-02-26T17:18:02;7.30;68.00
21169;DHT22;10742;51.816;8.662;2023-02-26T17:21:06;7.30;68.40
21169;DHT22;10742;51.816;8.662;2023-02-26T17:24:41;7.30;68.40
21169;DHT22;10742;51.816;8.662;2023-02-26T17:28:28;7.20;67.80
21169;DHT22;10742;51.816;8.662;2023-02-26T17:31:32;7.20;68.00
21169;DHT22;10742;51.816;8.662;2023-02-26T17:34:36;7.20;68.70
21169;DHT22;10742;51.816;8.662;2023-02-26T17:37:44;7.20;68.70
21169;DHT22;10742;51.816;8.662;2023-02-26T17:41:17;7.20;68.60
21169;DHT22;10742;51.816;8.662;2023-02-26T17:44:21;7.10;68.40
21169;DHT22;10742;51.816;8.662;2023-02-26T17:47:28;7.10;69.30
21169;DHT22;10742;51.816;8.662;2023-02-26T17:50:50;7.00;69.50
21169;DHT22;10742;51.816;8.662;2023-02-26T17:54:03;7.00;69.50
21169;DHT22;10742;51.816;8.662;2023-02-26T17:57:06;7.00;70.20
21169;DHT22;10742;51.816;8.662;2023-02-26T18:00:15;7.00;70.40
21169;DHT22;10742;51.816;8.662;2023-02-26T18:03:22;6.90;70.40
21169;DHT22;10742;51.816;8.662;2023-02-26T18:06:32;6.90;70.60
21169;DHT22;10742;51.816;8.662;2023-02-26T18:09:38;6.90;70.90
21169;DHT22;10742;51.816;8.662;2023-02-26T18:12:41;6.90;71.20
21169;DHT22;10742;51.816;8.662;2023-02-26T18:15:56;6.90;71.40
21169;DHT22;10742;51.816;8.662;2023-02-26T18:19:01;6.80;71.40
21169;DHT22;10742;51.816;8.662;2023-02-26T18:22:12;6.80;71.80
21169;DHT22;10742;51.816;8.662;2023-02-26T18:25:16;6.80;71.90
21169;DHT22;10742;51.816;8.662;2023-02-26T18:28:22;6.80;72.10
21169;DHT22;10742;51.816;8.662;2023-02-26T18:31:28;6.80;72.20
21169;DHT22;10742;51.816;8.662;2023-02-26T18:34:37;6.80;72.50
21169;DHT22;10742;51.816;8.662;2023-02-26T18:37:45;6.70;72.60
21169;DHT22;10742;51.816;8.662;2023-02-26T18:40:48;6.80;72.80
21169;DHT22;10742;51.816;8.662;2023-02-26T18:43:59;6.80;73.00
21169;DHT22;10742;51.816;8.662;2023-02-26T18:47:03;6.70;73.00
21169;DHT22;10742;51.816;8.662;2023-02-26T18:50:07;6.70;73.10
21169;DHT22;10742;51.816;8.662;2023-02-26T18:53:19;6.70;73.20
21169;DHT22;10742;51.816;8.662;2023-02-26T18:56:56;6.70;73.40
21169;DHT22;10742;51.816;8.662;2023-02-26T19:00:12;6.60;73.40
21169;DHT22;10742;51.816;8.662;2023-02-26T19:03:26;6.60;73.60
21169;DHT22;10742;51.816;8.662;2023-02-26T19:06:34;6.60;73.70
21169;DHT22;10742;51.816;8.662;2023-02-26T19:09:37;6.60;74.00
21169;DHT22;10742;51.816;8.662;2023-02-26T19:12:41;6.50;74.10
21169;DHT22;10742;51.816;8.662;2023-02-26T19:15:46;6.50;74.20
21169;DHT22;10742;51.816;8.662;2023-02-26T19:18:56;6.50;74.40
21169;DHT22;10742;51.816;8.662;2023-02-26T19:22:05;6.40;74.50
21169;DHT22;10742;51.816;8.662;2023-02-26T19:25:11;6.40;74.60
21169;DHT22;10742;51.816;8.662;2023-02-26T19:28:18;6.40;74.70
21169;DHT22;10742;51.816;8.662;2023-02-26T19:31:25;6.40;74.80
21169;DHT22;10742;51.816;8.662;2023-02-26T19:34:31;6.30;74.80
21169;DHT22;10742;51.816;8.662;2023-02-26T19:37:40;6.30;75.00
21169;DHT22;10742;51.816;8.662;2023-02-26T19:40:51;6.30;75.20
21169;DHT22;10742;51.816;8.662;2023-02-26T19:43:57;6.30;75.20
21169;DHT22;10742;51.816;8.662;2023-02-26T19:47:02;6.20;75.40
21169;DHT22;10742;51.816;8.662;2023-02-26T19:50:08;6.20;75.50
21169;DHT22;10742;51.816;8.662;2023-02-26T19:53:22;6.20;75.60
21169;DHT22;10742;51.816;8.662;2023-02-26T19:56:28;6.20;75.70
21169;DHT22;10742;51.816;8.662;2023-02-26T19:59:31;6.20;75.80
21169;DHT22;10742;51.816;8.662;2023-02-26T20:02:33;6.20;76.00
21169;DHT22;10742;51.816;8.662;2023-02-26T20:05:39;6.20;76.10
21169;DHT22;10742;51.816;8.662;2023-02-26T20:08:42;6.20;76.10
21169;DHT22;10742;51.816;8.662;2023-02-26T20:11:46;6.20;76.10
21169;DHT22;10742;51.816;8.662;2023-02-26T20:14:49;6.20;76.20
21169;DHT22;10742;51.816;8.662;2023-02-26T20:18:03;6.20;76.30
21169;DHT22;10742;51.816;8.662;2023-02-26T20:21:09;6.20;76.30
21169;DHT22;10742;51.816;8.662;2023-02-26T20:24:20;6.20;76.30
21169;DHT22;10742;51.816;8.662;2023-02-26T20:27:24;6.20;76.40
21169;DHT22;10742;51.816;8.662;2023-02-26T20:30:27;6.20;76.40
21169;DHT22;10742;51.816;8.662;2023-02-26T20:33:31;6.20;76.40
21169;DHT22;10742;51.816;8.662;2023-02-26T20:36:37;6.20;76.40
21169;DHT22;10742;51.816;8.662;2023-02-26T20:39:40;6.20;76.60
21169;DHT22;10742;51.816;8.662;2023-02-26T20:42:43;6.20;76.40
21169;DHT22;10742;51.816;8.662;2023-02-26T20:45:49;6.10;76.40
21169;DHT22;10742;51.816;8.662;2023-02-26T20:48:53;6.10;76.50
21169;DHT22;10742;51.816;8.662;2023-02-26T20:51:56;6.10;76.60
21169;DHT22;10742;51.816;8.662;2023-02-26T20:55:03;6.10;76.70
21169;DHT22;10742;51.816;8.662;2023-02-26T20:58:07;6.10;76.70
21169;DHT22;10742;51.816;8.662;2023-02-26T21:01:13;6.10;76.70
21169;DHT22;10742;51.816;8.662;2023-02-26T21:04:17;6.00;76.70
21169;DHT22;10742;51.816;8.662;2023-02-26T21:07:20;6.10;76.90
21169;DHT22;10742;51.816;8.662;2023-02-26T21:10:25;6.00;76.90
21169;DHT22;10742;51.816;8.662;2023-02-26T21:13:30;6.00;77.00
21169;DHT22;10742;51.816;8.662;2023-02-26T21:16:35;6.00;77.00
21169;DHT22;10742;51.816;8.662;2023-02-26T21:19:38;6.00;77.20
21169;DHT22;10742;51.816;8.662;2023-02-26T21:22:41;6.00;77.20
21169;DHT22;10742;51.816;8.662;2023-02-26T21:25:44;6.00;77.30
21169;DHT22;10742;51.816;8.662;2023-02-26T21:28:47;6.00;77.40
21169;DHT22;10742;51.816;8.662;2023-02-26T21:31:50;5.90;77.40
21169;DHT22;10742;51.816;8.662;2023-02-26T21:34:55;5.90;77.50
21169;DHT22;10742;51.816;8.662;2023-02-26T21:38:00;5.90;77.60
21169;DHT22;10742;51.816;8.662;2023-02-26T21:41:03;5.90;77.80
21169;DHT22;10742;51.816;8.662;2023-02-26T21:44:07;5.80;77.70
21169;DHT22;10742;51.816;8.662;2023-02-26T21:47:13;5.80;77.80
21169;DHT22;10742;51.816;8.662;2023-02-26T21:50:16;5.80;77.90
21169;DHT22;10742;51.816;8.662;2023-02-26T21:53:19;5.80;77.90
21169;DHT22;10742;51.816;8.662;2023-02-26T21:56:22;5.70;77.90
21169;DHT22;10742;51.816;8.662;2023-02-26T21:59:26;5.70;77.90
21169;DHT22;10742;51.816;8.662;2023-02-26T22:02:32;5.70;77.90
21169;DHT22;10742;51.816;8.662;2023-02-26T22:05:35;5.70;78.10
21169;DHT22;10742;51.816;8.662;2023-02-26T22:08:38;5.60;78.00
21169;DHT22;10742;51.816;8.662;2023-02-26T22:11:41;5.60;78.10
21169;DHT22;10742;51.816;8.662;2023-02-26T22:14:45;5.60;78.20
21169;DHT22;10742;51.816;8.662;2023-02-26T22:17:47;5.60;78.40
21169;DHT22;10742;51.816;8.662;2023-02-26T22:20:49;5.50;78.40
21169;DHT22;10742;51.816;8.662;2023-02-26T22:23:52;5.50;78.50
21169;DHT22;10742;51.816;8.662;2023-02-26T22:26:54;5.40;78.50
21169;DHT22;10742;51.816;8.662;2023-02-26T22:29:57;5.40;78.60
21169;DHT22;10742;51.816;8.662;2023-02-26T22:32:59;5.30;78.70
21169;DHT22;10742;51.816;8.662;2023-02-26T22:36:02;5.30;78.70
21169;DHT22;10742;51.816;8.662;2023-02-26T22:39:05;5.30;78.90
21169;DHT22;10742;51.816;8.662;2023-02-26T22:42:07;5.30;79.00
21169;DHT22;10742;51.816;8.662;2023-02-26T22:45:10;5.20;79.00
21169;DHT22;10742;51.816;8.662;2023-02-26T22:48:14;5.20;79.10
21169;DHT22;10742;51.816;8.662;2023-02-26T22:51:18;5.20;79.10
21169;DHT22;10742;51.816;8.662;2023-02-26T22:54:23;5.10;79.10
21169;DHT22;10742;51.816;8.662;2023-02-26T22:57:25;5.10;79.30
21169;DHT22;10742;51.816;8.662;2023-02-26T23:00:27;5.00;79.20
21169;DHT22;10742;51.816;8.662;2023-02-26T23:07:26;4.90;79.80
21169;DHT22;10742;51.816;8.662;2023-02-26T23:10:31;4.80;79.30
21169;DHT22;10742;51.816;8.662;2023-02-26T23:13:34;4.80;79.80
21169;DHT22;10742;51.816;8.662;2023-02-26T23:16:37;4.70;79.90
21169;DHT22;10742;51.816;8.662;2023-02-26T23:19:39;4.60;80.10
21169;DHT22;10742;51.816;8.662;2023-02-26T23:22:42;4.60;80.30